sensor_id;sensor_type;location;lat;lon;timestamp;P1;durP1;ratioP1;P2;durP2;ratioP2
1507;SDS011;745;48.586;10.032;2023-02-22T00:02:32;1.97;;;1.80;;
1507;SDS011;745;48.586;10.032;2023-02-22T00:07:03;2.50;;;2.10;;
1507;SDS011;745;48.586;10.032;2023-02-22T00:11:33;2.50;;;2.30;;
1507;SDS011;745;48.586;10.032;2023-02-22T00:16:04;3.10;;;2.43;;
1507;SDS011;745;48.586;10.032;2023-02-22T00:20:35;3.10;;;2.80;;
1507;SDS011;745;48.586;10.032;2023-02-22T00:25:09;2.57;;;2.37;;
1507;SDS011;745;48.586;10.032;2023-02-22T00:29:43;4.53;;;2.63;;
1507;SDS011;745;48.586;10.032;2023-02-22T00:34:14;2.60;;;2.30;;
1507;SDS011;745;48.586;10.032;2023-02-22T00:38:45;2.63;;;2.10;;
1507;SDS011;745;48.586;10.032;2023-02-22T00:48:42;3.00;;;2.63;;
1507;SDS011;745;48.586;10.032;2023-02-22T00:53:14;2.87;;;2.57;;
1507;SDS011;745;48.586;10.032;2023-02-22T00:57:44;3.37;;;2.90;;
1507;SDS011;745;48.586;10.032;2023-02-22T01:02:15;2.70;;;2.50;;
1507;SDS011;745;48.586;10.032;2023-02-22T01:06:46;3.37;;;2.57;;
1507;SDS011;745;48.586;10.032;2023-02-22T01:11:16;2.87;;;2.67;;
1507;SDS011;745;48.586;10.032;2023-02-22T01:15:47;2.87;;;2.57;;
1507;SDS011;745;48.586;10.032;2023-02-22T01:20:18;2.57;;;2.37;;
1507;SDS011;745;48.586;10.032;2023-02-22T01:24:49;3.03;;;2.73;;
1507;SDS011;745;48.586;10.032;2023-02-22T01:29:20;3.00;;;2.70;;
1507;SDS011;745;48.586;10.032;2023-02-22T01:33:51;2.60;;;2.37;;
1507;SDS011;745;48.586;10.032;2023-02-22T01:38:22;3.03;;;2.73;;
1507;SDS011;745;48.586;10.032;2023-02-22T01:52:53;3.80;;;3.40;;
1507;SDS011;745;48.586;10.032;2023-02-22T01:57:28;3.43;;;3.13;;
1507;SDS011;745;48.586;10.032;2023-02-22T02:02:03;4.40;;;3.13;;
1507;SDS011;745;48.586;10.032;2023-02-22T02:06:34;4.13;;;3.73;;
1507;SDS011;745;48.586;10.032;2023-02-22T02:11:06;4.10;;;3.70;;
1507;SDS011;745;48.586;10.032;2023-02-22T02:15:37;6.23;;;3.50;;
1507;SDS011;745;48.586;10.032;2023-02-22T02:34:54;4.60;;;3.73;;
1507;SDS011;745;48.586;10.032;2023-02-22T02:49:18;5.27;;;4.30;;
1507;SDS011;745;48.586;10.032;2023-02-22T02:53:51;4.10;;;3.70;;
1507;SDS011;745;48.586;10.032;2023-02-22T02:58:22;7.60;;;5.60;;
1507;SDS011;745;48.586;10.032;2023-02-22T03:07:35;4.20;;;3.70;;
1507;SDS011;745;48.586;10.032;2023-02-22T03:17:14;6.10;;;4.47;;
1507;SDS011;745;48.586;10.032;2023-02-22T03:21:55;3.80;;;3.30;;
1507;SDS011;745;48.586;10.032;2023-02-22T03:26:33;4.37;;;3.53;;
1507;SDS011;745;48.586;10.032;2023-02-22T03:31:16;5.43;;;3.13;;
1507;SDS011;745;48.586;10.032;2023-02-22T03:35:54;3.83;;;3.43;;
1507;SDS011;745;48.586;10.032;2023-02-22T03:40:27;4.27;;;3.80;;
1507;SDS011;745;48.586;10.032;2023-02-22T03:45:01;4.10;;;3.80;;
1507;SDS011;745;48.586;10.032;2023-02-22T03:49:35;4.40;;;4.00;;
1507;SDS011;745;48.586;10.032;2023-02-22T03:54:07;5.73;;;5.00;;
1507;SDS011;745;48.586;10.032;2023-02-22T03:58:40;6.13;;;5.47;;
1507;SDS011;745;48.586;10.032;2023-02-22T04:03:16;6.00;;;5.40;;
1507;SDS011;745;48.586;10.032;2023-02-22T04:07:47;5.00;;;4.50;;
1507;SDS011;745;48.586;10.032;2023-02-22T04:12:18;4.87;;;4.20;;
1507;SDS011;745;48.586;10.032;2023-02-22T04:16:48;4.00;;;3.60;;
1507;SDS011;745;48.586;10.032;2023-02-22T04:21:19;4.30;;;3.80;;
1507;SDS011;745;48.586;10.032;2023-02-22T04:25:49;4.40;;;3.93;;
1507;SDS011;745;48.586;10.032;2023-02-22T04:30:20;5.47;;;4.43;;
1507;SDS011;745;48.586;10.032;2023-02-22T04:34:50;5.00;;;4.43;;
1507;SDS011;745;48.586;10.032;2023-02-22T04:39:20;6.00;;;4.90;;
1507;SDS011;745;48.586;10.032;2023-02-22T04:43:51;4.97;;;4.53;;
1507;SDS011;745;48.586;10.032;2023-02-22T04:48:22;6.57;;;5.50;;
1507;SDS011;745;48.586;10.032;2023-02-22T04:52:52;6.43;;;5.63;;
1507;SDS011;745;48.586;10.032;2023-02-22T04:57:22;13.07;;;9.70;;
1507;SDS011;745;48.586;10.032;2023-02-22T05:01:53;12.40;;;9.73;;
1507;SDS011;745;48.586;10.032;2023-02-22T05:06:24;12.47;;;9.10;;
1507;SDS011;745;48.586;10.032;2023-02-22T05:10:54;14.30;;;9.70;;
1507;SDS011;745;48.586;10.032;2023-02-22T05:15:24;10.30;;;7.73;;
1507;SDS011;745;48.586;10.032;2023-02-22T05:19:55;8.90;;;7.37;;
1507;SDS011;745;48.586;10.032;2023-02-22T05:24:25;7.53;;;6.30;;
1507;SDS011;745;48.586;10.032;2023-02-22T05:28:55;9.70;;;6.87;;
1507;SDS011;745;48.586;10.032;2023-02-22T05:33:26;8.70;;;6.30;;
1507;SDS011;745;48.586;10.032;2023-02-22T05:37:56;7.97;;;6.93;;
1507;SDS011;745;48.586;10.032;2023-02-22T05:42:28;8.40;;;6.60;;
1507;SDS011;745;48.586;10.032;2023-02-22T05:46:59;8.70;;;7.13;;
1507;SDS011;745;48.586;10.032;2023-02-22T05:51:29;8.93;;;6.70;;
1507;SDS011;745;48.586;10.032;2023-02-22T05:55:59;9.77;;;7.63;;
1507;SDS011;745;48.586;10.032;2023-02-22T06:00:30;6.77;;;5.97;;
1507;SDS011;745;48.586;10.032;2023-02-22T06:05:01;11.80;;;8.13;;
1507;SDS011;745;48.586;10.032;2023-02-22T06:09:31;11.03;;;8.80;;
1507;SDS011;745;48.586;10.032;2023-02-22T06:14:01;8.23;;;7.33;;
1507;SDS011;745;48.586;10.032;2023-02-22T06:18:32;10.93;;;8.03;;
1507;SDS011;745;48.586;10.032;2023-02-22T06:23:02;8.27;;;7.03;;
1507;SDS011;745;48.586;10.032;2023-02-22T06:27:33;9.27;;;7.10;;
1507;SDS011;745;48.586;10.032;2023-02-22T06:32:03;8.53;;;7.03;;
1507;SDS011;745;48.586;10.032;2023-02-22T06:36:34;9.00;;;6.63;;
1507;SDS011;745;48.586;10.032;2023-02-22T06:41:04;6.73;;;5.90;;
1507;SDS011;745;48.586;10.032;2023-02-22T06:45:35;6.97;;;5.93;;
1507;SDS011;745;48.586;10.032;2023-02-22T06:50:05;11.37;;;8.93;;
1507;SDS011;745;48.586;10.032;2023-02-22T06:54:37;11.70;;;9.00;;
1507;SDS011;745;48.586;10.032;2023-02-22T06:59:08;11.73;;;9.67;;
1507;SDS011;745;48.586;10.032;2023-02-22T07:03:38;11.40;;;9.03;;
1507;SDS011;745;48.586;10.032;2023-02-22T07:08:09;14.77;;;10.20;;
1507;SDS011;745;48.586;10.032;2023-02-22T07:12:39;12.50;;;9.83;;
1507;SDS011;745;48.586;10.032;2023-02-22T07:17:10;13.37;;;10.03;;
1507;SDS011;745;48.586;10.032;2023-02-22T07:21:40;11.03;;;9.57;;
1507;SDS011;745;48.586;10.032;2023-02-22T07:26:10;11.13;;;8.90;;
1507;SDS011;745;48.586;10.032;2023-02-22T07:30:42;12.17;;;10.03;;
1507;SDS011;745;48.586;10.032;2023-02-22T07:35:23;14.23;;;10.93;;
1507;SDS011;745;48.586;10.032;2023-02-22T07:39:55;14.00;;;11.53;;
1507;SDS011;745;48.586;10.032;2023-02-22T07:44:26;16.23;;;13.10;;
1507;SDS011;745;48.586;10.032;2023-02-22T07:48:56;15.77;;;13.70;;
1507;SDS011;745;48.586;10.032;2023-02-22T07:53:28;15.03;;;13.20;;
1507;SDS011;745;48.586;10.032;2023-02-22T07:58:01;15.53;;;13.03;;
1507;SDS011;745;48.586;10.032;2023-02-22T08:02:33;15.43;;;13.83;;
1507;SDS011;745;48.586;10.032;2023-02-22T08:07:03;12.97;;;11.53;;
1507;SDS011;745;48.586;10.032;2023-02-22T08:11:34;13.90;;;11.40;;
1507;SDS011;745;48.586;10.032;2023-02-22T08:16:04;13.10;;;11.10;;
1507;SDS011;745;48.586;10.032;2023-02-22T08:20:35;13.67;;;11.73;;
1507;SDS011;745;48.586;10.032;2023-02-22T08:25:05;15.50;;;12.03;;
1507;SDS011;745;48.586;10.032;2023-02-22T08:29:36;13.90;;;12.40;;
1507;SDS011;745;48.586;10.032;2023-02-22T08:34:06;12.97;;;11.60;;
1507;SDS011;745;48.586;10.032;2023-02-22T08:38:36;13.23;;;11.03;;
1507;SDS011;745;48.586;10.032;2023-02-22T08:43:07;12.33;;;10.70;;
1507;SDS011;745;48.586;10.032;2023-02-22T08:47:37;11.83;;;10.27;;
1507;SDS011;745;48.586;10.032;2023-02-22T08:52:08;11.37;;;10.27;;
1507;SDS011;745;48.586;10.032;2023-02-22T08:56:39;11.17;;;8.80;;
1507;SDS011;745;48.586;10.032;2023-02-22T09:01:09;7.80;;;7.00;;
1507;SDS011;745;48.586;10.032;2023-02-22T09:05:40;7.83;;;6.23;;
1507;SDS011;745;48.586;10.032;2023-02-22T09:10:12;7.67;;;6.20;;
1507;SDS011;745;48.586;10.032;2023-02-22T09:14:44;6.40;;;5.80;;
1507;SDS011;745;48.586;10.032;2023-02-22T09:19:14;8.17;;;6.97;;
1507;SDS011;745;48.586;10.032;2023-02-22T09:23:45;9.60;;;8.17;;
1507;SDS011;745;48.586;10.032;2023-02-22T09:28:16;9.87;;;8.77;;
1507;SDS011;745;48.586;10.032;2023-02-22T09:32:48;9.60;;;8.60;;
1507;SDS011;745;48.586;10.032;2023-02-22T09:37:19;11.70;;;9.60;;
1507;SDS011;745;48.586;10.032;2023-02-22T09:50:57;9.77;;;8.77;;
1507;SDS011;745;48.586;10.032;2023-02-22T09:55:41;9.23;;;8.40;;
1507;SDS011;745;48.586;10.032;2023-02-22T10:00:16;9.10;;;8.20;;
1507;SDS011;745;48.586;10.032;2023-02-22T10:04:51;10.57;;;9.20;;
1507;SDS011;745;48.586;10.032;2023-02-22T10:09:26;9.63;;;8.63;;
1507;SDS011;745;48.586;10.032;2023-02-22T10:18:49;8.60;;;7.70;;
1507;SDS011;745;48.586;10.032;2023-02-22T10:23:34;11.13;;;7.90;;
1507;SDS011;745;48.586;10.032;2023-02-22T10:33:50;8.00;;;6.90;;
1507;SDS011;745;48.586;10.032;2023-02-22T10:37:53;7.70;;;6.90;;
1507;SDS011;745;48.586;10.032;2023-02-22T10:42:27;9.60;;;8.43;;
1507;SDS011;745;48.586;10.032;2023-02-22T10:46:59;6.70;;;6.07;;
1507;SDS011;745;48.586;10.032;2023-02-22T10:51:32;7.57;;;6.73;;
1507;SDS011;745;48.586;10.032;2023-02-22T11:00:47;8.37;;;6.70;;
1507;SDS011;745;48.586;10.032;2023-02-22T11:05:39;7.10;;;6.40;;
1507;SDS011;745;48.586;10.032;2023-02-22T11:10:10;6.27;;;5.67;;
1507;SDS011;745;48.586;10.032;2023-02-22T11:14:40;9.70;;;7.63;;
1507;SDS011;745;48.586;10.032;2023-02-22T11:23:45;7.10;;;6.40;;
1507;SDS011;745;48.586;10.032;2023-02-22T11:28:27;11.50;;;10.30;;
1507;SDS011;745;48.586;10.032;2023-02-22T11:33:05;9.67;;;8.67;;
1507;SDS011;745;48.586;10.032;2023-02-22T11:37:39;9.40;;;8.40;;
1507;SDS011;745;48.586;10.032;2023-02-22T11:42:19;10.33;;;8.53;;
1507;SDS011;745;48.586;10.032;2023-02-22T11:46:55;11.70;;;9.27;;
1507;SDS011;745;48.586;10.032;2023-02-22T11:56:32;9.50;;;8.50;;
1507;SDS011;745;48.586;10.032;2023-02-22T12:01:15;10.67;;;8.43;;
1507;SDS011;745;48.586;10.032;2023-02-22T12:05:57;10.10;;;8.67;;
1507;SDS011;745;48.586;10.032;2023-02-22T12:10:54;9.90;;;8.83;;
1507;SDS011;745;48.586;10.032;2023-02-22T12:20:54;11.07;;;9.60;;
1507;SDS011;745;48.586;10.032;2023-02-22T12:25:30;9.67;;;8.40;;
1507;SDS011;745;48.586;10.032;2023-02-22T12:30:10;10.70;;;9.60;;
1507;SDS011;745;48.586;10.032;2023-02-22T12:34:46;9.80;;;8.10;;
1507;SDS011;745;48.586;10.032;2023-02-22T12:39:23;11.87;;;9.67;;
1507;SDS011;745;48.586;10.032;2023-02-22T12:53:25;10.60;;;9.50;;
1507;SDS011;745;48.586;10.032;2023-02-22T12:58:09;13.73;;;10.93;;
1507;SDS011;745;48.586;10.032;2023-02-22T13:13:44;10.13;;;9.13;;
1507;SDS011;745;48.586;10.032;2023-02-22T13:18:17;12.00;;;10.10;;
1507;SDS011;745;48.586;10.032;2023-02-22T13:42:31;12.60;;;11.00;;
1507;SDS011;745;48.586;10.032;2023-02-22T13:51:50;15.10;;;11.70;;
1507;SDS011;745;48.586;10.032;2023-02-22T13:56:25;13.30;;;10.40;;
1507;SDS011;745;48.586;10.032;2023-02-22T14:00:56;14.00;;;11.30;;
1507;SDS011;745;48.586;10.032;2023-02-22T14:10:34;13.40;;;11.70;;
1507;SDS011;745;48.586;10.032;2023-02-22T14:19:39;12.70;;;11.10;;
1507;SDS011;745;48.586;10.032;2023-02-22T14:24:13;12.93;;;10.73;;
1507;SDS011;745;48.586;10.032;2023-02-22T14:38:35;12.90;;;10.90;;
1507;SDS011;745;48.586;10.032;2023-02-22T14:43:15;13.50;;;10.90;;
1507;SDS011;745;48.586;10.032;2023-02-22T14:52:34;12.37;;;10.67;;
1507;SDS011;745;48.586;10.032;2023-02-22T14:57:10;13.80;;;10.80;;
1507;SDS011;745;48.586;10.032;2023-02-22T15:01:46;15.20;;;13.60;;
1507;SDS011;745;48.586;10.032;2023-02-22T15:06:21;11.77;;;10.37;;
1507;SDS011;745;48.586;10.032;2023-02-22T15:10:53;11.00;;;9.90;;
1507;SDS011;745;48.586;10.032;2023-02-22T15:15:23;9.23;;;8.30;;
1507;SDS011;745;48.586;10.032;2023-02-22T15:19:54;9.10;;;8.20;;
1507;SDS011;745;48.586;10.032;2023-02-22T15:24:25;10.17;;;9.10;;
1507;SDS011;745;48.586;10.032;2023-02-22T15:28:57;9.47;;;8.00;;
1507;SDS011;745;48.586;10.032;2023-02-22T15:33:28;9.90;;;8.30;;
1507;SDS011;745;48.586;10.032;2023-02-22T15:42:43;9.90;;;8.53;;
1507;SDS011;745;48.586;10.032;2023-02-22T15:47:21;14.07;;;10.40;;
1507;SDS011;745;48.586;10.032;2023-02-22T15:52:01;9.67;;;8.73;;
1507;SDS011;745;48.586;10.032;2023-02-22T15:56:51;9.00;;;7.67;;
1507;SDS011;745;48.586;10.032;2023-02-22T16:01:25;7.87;;;7.07;;
1507;SDS011;745;48.586;10.032;2023-02-22T16:05:56;7.60;;;6.80;;
1507;SDS011;745;48.586;10.032;2023-02-22T16:10:31;6.97;;;6.20;;
1507;SDS011;745;48.586;10.032;2023-02-22T16:15:02;9.80;;;7.80;;
1507;SDS011;745;48.586;10.032;2023-02-22T16:19:44;9.50;;;7.83;;
1507;SDS011;745;48.586;10.032;2023-02-22T16:24:24;7.67;;;6.83;;
1507;SDS011;745;48.586;10.032;2023-02-22T16:29:06;8.07;;;7.03;;
1507;SDS011;745;48.586;10.032;2023-02-22T16:33:37;8.87;;;7.27;;
1507;SDS011;745;48.586;10.032;2023-02-22T16:38:09;9.20;;;8.30;;
1507;SDS011;745;48.586;10.032;2023-02-22T16:42:45;13.90;;;12.40;;
1507;SDS011;745;48.586;10.032;2023-02-22T16:47:16;15.03;;;12.87;;
1507;SDS011;745;48.586;10.032;2023-02-22T16:51:48;15.27;;;12.73;;
1507;SDS011;745;48.586;10.032;2023-02-22T16:56:25;13.30;;;11.90;;
1507;SDS011;745;48.586;10.032;2023-02-22T17:00:57;16.47;;;12.40;;
1507;SDS011;745;48.586;10.032;2023-02-22T17:05:28;13.77;;;12.20;;
1507;SDS011;745;48.586;10.032;2023-02-22T17:09:59;15.17;;;11.93;;
1507;SDS011;745;48.586;10.032;2023-02-22T17:14:32;14.43;;;11.03;;
1507;SDS011;745;48.586;10.032;2023-02-22T17:19:05;10.30;;;8.53;;
1507;SDS011;745;48.586;10.032;2023-02-22T17:23:38;9.77;;;7.50;;
1507;SDS011;745;48.586;10.032;2023-02-22T17:28:09;7.30;;;6.10;;
1507;SDS011;745;48.586;10.032;2023-02-22T17:32:40;7.37;;;6.30;;
1507;SDS011;745;48.586;10.032;2023-02-22T17:37:10;9.20;;;6.40;;
1507;SDS011;745;48.586;10.032;2023-02-22T17:41:40;7.23;;;5.97;;
1507;SDS011;745;48.586;10.032;2023-02-22T17:46:11;8.57;;;5.57;;
1507;SDS011;745;48.586;10.032;2023-02-22T17:50:42;9.67;;;6.50;;
1507;SDS011;745;48.586;10.032;2023-02-22T17:55:14;8.90;;;6.10;;
1507;SDS011;745;48.586;10.032;2023-02-22T17:59:46;6.80;;;5.27;;
1507;SDS011;745;48.586;10.032;2023-02-22T18:04:16;9.20;;;5.90;;
1507;SDS011;745;48.586;10.032;2023-02-22T18:08:46;6.87;;;5.30;;
1507;SDS011;745;48.586;10.032;2023-02-22T18:13:17;6.10;;;4.40;;
1507;SDS011;745;48.586;10.032;2023-02-22T18:17:48;5.33;;;4.60;;
1507;SDS011;745;48.586;10.032;2023-02-22T18:22:19;7.40;;;5.80;;
1507;SDS011;745;48.586;10.032;2023-02-22T18:26:49;12.60;;;9.00;;
1507;SDS011;745;48.586;10.032;2023-02-22T18:31:21;11.50;;;8.23;;
1507;SDS011;745;48.586;10.032;2023-02-22T18:35:51;11.20;;;8.23;;
1507;SDS011;745;48.586;10.032;2023-02-22T18:40:22;8.43;;;6.83;;
1507;SDS011;745;48.586;10.032;2023-02-22T18:44:53;12.37;;;7.70;;
1507;SDS011;745;48.586;10.032;2023-02-22T18:49:23;13.53;;;8.87;;
1507;SDS011;745;48.586;10.032;2023-02-22T18:53:56;10.17;;;7.60;;
1507;SDS011;745;48.586;10.032;2023-02-22T18:58:29;10.70;;;7.50;;
1507;SDS011;745;48.586;10.032;2023-02-22T19:03:01;10.70;;;7.07;;
1507;SDS011;745;48.586;10.032;2023-02-22T19:07:32;9.40;;;7.03;;
1507;SDS011;745;48.586;10.032;2023-02-22T19:12:03;7.27;;;6.47;;
1507;SDS011;745;48.586;10.032;2023-02-22T19:16:33;8.47;;;7.20;;
1507;SDS011;745;48.586;10.032;2023-02-22T19:21:04;10.27;;;7.60;;
1507;SDS011;745;48.586;10.032;2023-02-22T19:25:37;8.80;;;6.60;;
1507;SDS011;745;48.586;10.032;2023-02-22T19:30:10;10.87;;;6.90;;
1507;SDS011;745;48.586;10.032;2023-02-22T19:34:40;9.80;;;7.30;;
1507;SDS011;745;48.586;10.032;2023-02-22T19:39:13;12.90;;;7.97;;
1507;SDS011;745;48.586;10.032;2023-02-22T19:43:45;9.73;;;8.00;;
1507;SDS011;745;48.586;10.032;2023-02-22T19:48:16;13.03;;;9.20;;
1507;SDS011;745;48.586;10.032;2023-02-22T19:52:47;11.40;;;8.17;;
1507;SDS011;745;48.586;10.032;2023-02-22T19:57:18;11.90;;;8.90;;
1507;SDS011;745;48.586;10.032;2023-02-22T20:01:52;15.20;;;11.50;;
1507;SDS011;745;48.586;10.032;2023-02-22T20:06:24;12.90;;;9.00;;
1507;SDS011;745;48.586;10.032;2023-02-22T20:10:57;13.37;;;9.60;;
1507;SDS011;745;48.586;10.032;2023-02-22T20:15:27;15.67;;;10.73;;
1507;SDS011;745;48.586;10.032;2023-02-22T20:19:58;16.40;;;11.27;;
1507;SDS011;745;48.586;10.032;2023-02-22T20:24:29;18.37;;;12.87;;
1507;SDS011;745;48.586;10.032;2023-02-22T20:28:59;16.07;;;12.00;;
1507;SDS011;745;48.586;10.032;2023-02-22T20:33:32;15.43;;;10.80;;
1507;SDS011;745;48.586;10.032;2023-02-22T20:38:03;13.73;;;11.30;;
1507;SDS011;745;48.586;10.032;2023-02-22T20:42:34;14.53;;;10.20;;
1507;SDS011;745;48.586;10.032;2023-02-22T20:47:05;13.67;;;10.30;;
1507;SDS011;745;48.586;10.032;2023-02-22T20:51:35;11.27;;;8.93;;
1507;SDS011;745;48.586;10.032;2023-02-22T20:56:12;14.57;;;11.23;;
1507;SDS011;745;48.586;10.032;2023-02-22T21:00:43;11.87;;;9.67;;
1507;SDS011;745;48.586;10.032;2023-02-22T21:05:13;12.50;;;8.97;;
1507;SDS011;745;48.586;10.032;2023-02-22T21:09:44;12.00;;;8.73;;
1507;SDS011;745;48.586;10.032;2023-02-22T21:14:14;10.00;;;7.80;;
1507;SDS011;745;48.586;10.032;2023-02-22T21:18:52;9.27;;;7.80;;
1507;SDS011;745;48.586;10.032;2023-02-22T21:23:23;10.50;;;9.00;;
1507;SDS011;745;48.586;10.032;2023-02-22T21:27:54;12.27;;;8.97;;
1507;SDS011;745;48.586;10.032;2023-02-22T21:32:24;14.17;;;10.13;;
1507;SDS011;745;48.586;10.032;2023-02-22T21:36:54;19.13;;;13.57;;
1507;SDS011;745;48.586;10.032;2023-02-22T21:41:26;16.10;;;11.80;;
1507;SDS011;745;48.586;10.032;2023-02-22T21:46:02;19.77;;;14.20;;
1507;SDS011;745;48.586;10.032;2023-02-22T21:50:33;20.57;;;13.97;;
1507;SDS011;745;48.586;10.032;2023-02-22T21:55:06;12.73;;;10.97;;
1507;SDS011;745;48.586;10.032;2023-02-22T21:59:37;15.00;;;10.60;;
1507;SDS011;745;48.586;10.032;2023-02-22T22:04:08;11.90;;;9.20;;
1507;SDS011;745;48.586;10.032;2023-02-22T22:08:39;12.90;;;10.57;;
1507;SDS011;745;48.586;10.032;2023-02-22T22:13:10;11.67;;;9.60;;
1507;SDS011;745;48.586;10.032;2023-02-22T22:17:41;14.03;;;10.20;;
1507;SDS011;745;48.586;10.032;2023-02-22T22:22:12;12.33;;;9.23;;
1507;SDS011;745;48.586;10.032;2023-02-22T22:26:42;12.30;;;10.30;;
1507;SDS011;745;48.586;10.032;2023-02-22T22:31:14;15.03;;;11.30;;
1507;SDS011;745;48.586;10.032;2023-02-22T22:35:45;17.00;;;12.57;;
1507;SDS011;745;48.586;10.032;2023-02-22T22:40:16;16.77;;;11.63;;
1507;SDS011;745;48.586;10.032;2023-02-22T22:44:47;15.00;;;11.33;;
1507;SDS011;745;48.586;10.032;2023-02-22T22:49:19;18.83;;;14.07;;
1507;SDS011;745;48.586;10.032;2023-02-22T22:53:49;18.00;;;13.43;;
1507;SDS011;745;48.586;10.032;2023-02-22T22:58:20;14.60;;;11.50;;
1507;SDS011;745;48.586;10.032;2023-02-22T23:02:51;15.27;;;11.20;;
1507;SDS011;745;48.586;10.032;2023-02-22T23:07:25;13.57;;;9.90;;
1507;SDS011;745;48.586;10.032;2023-02-22T23:11:59;12.13;;;9.60;;
1507;SDS011;745;48.586;10.032;2023-02-22T23:16:38;21.63;;;15.90;;
1507;SDS011;745;48.586;10.032;2023-02-22T23:21:09;21.10;;;14.27;;
1507;SDS011;745;48.586;10.032;2023-02-22T23:25:40;19.63;;;13.10;;
1507;SDS011;745;48.586;10.032;2023-02-22T23:30:10;14.87;;;10.97;;
1507;SDS011;745;48.586;10.032;2023-02-22T23:34:44;16.27;;;11.63;;
1507;SDS011;745;48.586;10.032;2023-02-22T23:39:18;16.47;;;11.87;;
1507;SDS011;745;48.586;10.032;2023-02-22T23:43:49;13.60;;;10.90;;
1507;SDS011;745;48.586;10.032;2023-02-22T23:48:20;15.57;;;10.70;;
1507;SDS011;745;48.586;10.032;2023-02-22T23:52:54;13.80;;;10.87;;
1507;SDS011;745;48.586;10.032;2023-02-22T23:57:26;12.70;;;9.77;;
